createdAt,value
2023-05-19T00:03:36.096Z,4.03
2023-05-19T00:08:45.032Z,4.03
2023-05-19T00:13:54.159Z,4.01
2023-05-19T00:19:04.215Z,4.01
2023-05-19T00:24:13.653Z,4.04
2023-05-19T00:29:22.859Z,4.04
2023-05-19T00:34:31.918Z,4.04
2023-05-19T00:39:41.677Z,4.04
2023-05-19T00:44:52.063Z,4.04
2023-05-19T00:50:00.683Z,4.04
2023-05-19T00:55:09.092Z,4.02
2023-05-19T01:00:19.400Z,4.02
2023-05-19T01:05:27.927Z,4.04
2023-05-19T02:02:10.158Z,4
2023-05-19T02:07:19.906Z,4.03
2023-05-19T02:12:30.288Z,4.03
2023-05-19T02:17:39.016Z,4.04
2023-05-19T02:22:47.914Z,4.03
2023-05-19T02:27:56.424Z,4.03
2023-05-19T02:33:06.655Z,4.05
2023-05-19T02:38:15.565Z,4.05
2023-05-19T02:43:26.304Z,4.05
2023-05-19T02:48:35.457Z,4.05
2023-05-19T02:53:43.898Z,3.98
2023-05-19T02:58:53.667Z,3.98
2023-05-19T03:04:02.952Z,4.01
2023-05-19T03:09:11.913Z,4.01
2023-05-19T03:14:20.375Z,4.02
2023-05-19T03:19:30.751Z,4.02
2023-05-19T03:24:40.581Z,3.97
2023-05-19T04:21:21.487Z,4.02
2023-05-19T04:26:30.010Z,4.02
2023-05-19T04:31:38.883Z,4.02
2023-05-19T04:36:53.706Z,4.02
2023-05-19T04:41:57.318Z,4.02
2023-05-19T04:47:07.546Z,4.03
2023-05-19T04:52:16.237Z,4.03
2023-05-19T04:57:26.627Z,4.01
2023-05-19T05:48:57.177Z,4.02
2023-05-19T05:54:06.325Z,3.99
2023-05-19T05:59:15.444Z,3.99
2023-05-19T06:04:24.604Z,3.99
2023-05-19T06:09:35.068Z,3.99
2023-05-19T06:14:44.164Z,3.99
2023-05-19T06:19:53.818Z,3.99
2023-05-19T06:25:03.593Z,4.07
2023-05-19T06:30:12.720Z,4.07
2023-05-19T06:35:22.512Z,4.02
2023-05-19T06:40:32.942Z,4.02
2023-05-19T06:45:40.710Z,4.02
2023-05-19T06:50:49.828Z,4.02
2023-05-19T06:56:00.773Z,3.97
2023-05-19T07:21:47.776Z,4
2023-05-19T08:18:31.329Z,3.99
2023-05-19T08:23:40.372Z,3.99
2023-05-19T08:28:48.884Z,4.02
2023-05-19T08:33:58.057Z,4.02
2023-05-19T08:39:07.854Z,4.01
2023-05-19T08:44:19.346Z,3.99
2023-05-19T08:49:27.281Z,3.99
2023-05-19T08:54:35.786Z,4.03
2023-05-19T08:59:44.880Z,4.03
2023-05-19T09:04:54.335Z,4.02
2023-05-19T09:10:03.153Z,4.02
2023-05-19T09:15:11.606Z,4.02
2023-05-19T09:20:21.365Z,4.02
2023-05-19T09:25:29.800Z,4.01
2023-05-19T09:30:38.980Z,4.01
2023-05-19T09:35:48.105Z,4.01
2023-05-19T09:40:57.858Z,4.01
2023-05-19T09:46:07.193Z,4.05
2023-05-19T09:51:16.110Z,4.05
2023-05-19T09:56:25.825Z,4.06
2023-05-19T10:01:34.553Z,4.06
2023-05-19T10:06:43.437Z,4.09
2023-05-19T10:11:53.452Z,4.09
2023-05-19T10:17:03.443Z,4.05
2023-05-19T10:22:12.743Z,4.05
2023-05-19T10:27:21.224Z,4.08
2023-05-19T10:32:30.430Z,4.08
2023-05-19T11:24:03.069Z,4.13
2023-05-19T11:29:11.936Z,4.16
2023-05-19T11:34:21.668Z,4.16
2023-05-19T11:39:30.782Z,4.12
2023-05-19T12:28:48.838Z,4.14
2023-05-19T12:33:56.123Z,4.14
2023-05-19T12:39:07.119Z,4.17
2023-05-19T12:44:16.878Z,4.17
2023-05-19T12:49:25.350Z,4.16
2023-05-19T12:54:36.185Z,4.16
2023-05-19T13:56:43.812Z,4.2
2023-05-19T14:01:53.097Z,4.2
2023-05-19T14:07:03.299Z,4.23
2023-05-19T14:12:11.180Z,4.23
2023-05-19T14:17:20.943Z,4.25
2023-05-19T15:19:20.114Z,4.23
2023-05-19T15:24:34.161Z,4.23
2023-05-19T15:29:43.292Z,4.21
2023-05-19T15:40:21.986Z,4.25
2023-05-19T15:45:35.593Z,4.25
2023-05-19T15:50:46.252Z,4.2
2023-05-19T15:55:58.294Z,4.2
2023-05-19T16:01:05.517Z,4.2
2023-05-19T16:06:14.650Z,4.2
2023-05-19T16:11:30.792Z,4.2
2023-05-19T16:16:39.703Z,4.18
2023-05-19T16:21:49.717Z,4.18
2023-05-19T16:27:00.119Z,4.24
2023-05-19T16:32:09.700Z,4.24
2023-05-19T16:37:18.953Z,4.19
2023-05-19T16:42:28.078Z,4.19
2023-05-19T16:47:36.746Z,4.21
2023-05-19T16:52:46.994Z,4.21
2023-05-19T16:57:55.782Z,4.22
2023-05-19T17:03:06.464Z,4.22
2023-05-19T17:08:17.520Z,4.23
2023-05-19T17:13:26.002Z,4.23
2023-05-19T17:18:36.381Z,4.19
2023-05-19T17:23:50.001Z,4.19
2023-05-19T17:29:02.983Z,4.19
2023-05-19T17:34:12.081Z,4.19
2023-05-19T17:39:21.870Z,4.16
2023-05-19T17:44:31.608Z,4.16
2023-05-19T17:49:40.739Z,4.17
2023-05-19T17:54:48.536Z,4.17
2023-05-19T18:00:05.150Z,4.17
2023-05-19T18:56:37.348Z,4.14
2023-05-19T19:01:46.261Z,4.14
2023-05-19T19:06:55.686Z,4.11
2023-05-19T19:12:05.371Z,4.11
2023-05-19T19:17:16.199Z,4.17
2023-05-19T19:22:26.158Z,4.17
2023-05-19T19:27:35.929Z,4.11
2023-05-19T19:32:45.212Z,4.11
2023-05-19T20:29:30.430Z,4.14
2023-05-19T20:34:40.519Z,4.14
2023-05-19T20:39:48.122Z,4.11
2023-05-19T20:44:57.183Z,4.11
2023-05-19T20:50:06.328Z,4.12
2023-05-19T20:55:14.776Z,4.12
2023-05-19T21:00:24.591Z,4.18
2023-05-19T21:05:34.310Z,4.18
2023-05-19T21:10:41.523Z,4.16
2023-05-19T21:15:50.628Z,4.16
2023-05-19T21:20:59.104Z,4.14
2023-05-19T21:26:08.871Z,4.14
2023-05-19T21:31:17.535Z,4.12
2023-05-19T21:36:25.859Z,4.12
2023-05-19T21:41:34.330Z,4.11
2023-05-19T21:46:46.119Z,4.11
2023-05-19T21:51:55.152Z,4.12
2023-05-19T21:57:04.898Z,4.12
2023-05-19T22:02:14.883Z,4.16
2023-05-19T22:07:24.408Z,4.12
2023-05-19T22:12:32.948Z,4.12
2023-05-19T22:17:43.606Z,4.1
2023-05-19T23:09:13.835Z,4.13
2023-05-19T23:14:23.588Z,4.13
2023-05-19T23:19:32.683Z,4.1
2023-05-19T23:24:42.481Z,4.1
2023-05-19T23:29:50.996Z,4.1
2023-05-19T23:35:00.723Z,4.1
2023-05-19T23:40:10.508Z,4.08
2023-05-19T23:45:20.873Z,4.08
2023-05-19T23:50:30.646Z,4.1
